sensor_id;sensor_type;location;lat;lon;timestamp;temperature;humidity
3416;DHT22;1721;51.238;9.562;2024-01-11T00:01:03;-4.10;74.70
3416;DHT22;1721;51.238;9.562;2024-01-11T00:03:29;-4.20;75.20
3416;DHT22;1721;51.238;9.562;2024-01-11T00:05:54;-4.10;75.40
3416;DHT22;1721;51.238;9.562;2024-01-11T00:08:20;-4.10;74.80
3416;DHT22;1721;51.238;9.562;2024-01-11T00:10:45;-4.10;74.80
3416;DHT22;1721;51.238;9.562;2024-01-11T00:13:11;-4.10;74.50
3416;DHT22;1721;51.238;9.562;2024-01-11T00:15:36;-4.10;74.10
3416;DHT22;1721;51.238;9.562;2024-01-11T00:18:02;-4.30;73.90
3416;DHT22;1721;51.238;9.562;2024-01-11T00:20:27;-4.40;74.60
3416;DHT22;1721;51.238;9.562;2024-01-11T00:22:53;-4.50;74.90
3416;DHT22;1721;51.238;9.562;2024-01-11T00:25:18;-4.40;74.90
3416;DHT22;1721;51.238;9.562;2024-01-11T00:27:44;-4.40;74.60
3416;DHT22;1721;51.238;9.562;2024-01-11T00:30:09;-4.40;74.30
3416;DHT22;1721;51.238;9.562;2024-01-11T00:32:35;-4.30;74.50
3416;DHT22;1721;51.238;9.562;2024-01-11T00:35:01;-4.40;74.20
3416;DHT22;1721;51.238;9.562;2024-01-11T00:37:26;-4.40;74.10
3416;DHT22;1721;51.238;9.562;2024-01-11T00:39:51;-4.40;74.10
3416;DHT22;1721;51.238;9.562;2024-01-11T00:42:17;-4.50;73.50
3416;DHT22;1721;51.238;9.562;2024-01-11T00:44:43;-4.50;74.00
3416;DHT22;1721;51.238;9.562;2024-01-11T00:47:10;-4.60;73.90
3416;DHT22;1721;51.238;9.562;2024-01-11T00:49:36;-4.50;74.10
3416;DHT22;1721;51.238;9.562;2024-01-11T00:52:01;-4.50;74.00
3416;DHT22;1721;51.238;9.562;2024-01-11T00:54:27;-4.50;73.90
3416;DHT22;1721;51.238;9.562;2024-01-11T00:56:52;-4.50;73.80
3416;DHT22;1721;51.238;9.562;2024-01-11T00:59:18;-4.60;74.30
3416;DHT22;1721;51.238;9.562;2024-01-11T01:01:50;-4.70;74.40
3416;DHT22;1721;51.238;9.562;2024-01-11T01:04:15;-4.70;74.40
3416;DHT22;1721;51.238;9.562;2024-01-11T01:06:42;-4.70;74.40
3416;DHT22;1721;51.238;9.562;2024-01-11T01:09:08;-4.70;73.90
3416;DHT22;1721;51.238;9.562;2024-01-11T01:11:33;-4.70;74.10
3416;DHT22;1721;51.238;9.562;2024-01-11T01:13:59;-4.70;74.00
3416;DHT22;1721;51.238;9.562;2024-01-11T01:16:27;-4.80;73.90
3416;DHT22;1721;51.238;9.562;2024-01-11T01:18:53;-4.80;74.20
3416;DHT22;1721;51.238;9.562;2024-01-11T01:21:18;-4.70;74.50
3416;DHT22;1721;51.238;9.562;2024-01-11T01:23:44;-4.70;74.30
3416;DHT22;1721;51.238;9.562;2024-01-11T01:26:09;-4.70;73.90
3416;DHT22;1721;51.238;9.562;2024-01-11T01:28:35;-4.70;73.70
3416;DHT22;1721;51.238;9.562;2024-01-11T01:31:01;-4.70;73.80
3416;DHT22;1721;51.238;9.562;2024-01-11T01:33:27;-4.70;73.70
3416;DHT22;1721;51.238;9.562;2024-01-11T01:35:52;-4.70;74.10
3416;DHT22;1721;51.238;9.562;2024-01-11T01:38:18;-4.80;74.70
3416;DHT22;1721;51.238;9.562;2024-01-11T01:40:43;-4.80;74.60
3416;DHT22;1721;51.238;9.562;2024-01-11T01:43:09;-4.80;74.70
3416;DHT22;1721;51.238;9.562;2024-01-11T01:45:35;-4.70;74.60
3416;DHT22;1721;51.238;9.562;2024-01-11T01:48:02;-4.70;74.40
3416;DHT22;1721;51.238;9.562;2024-01-11T01:50:28;-4.60;74.10
3416;DHT22;1721;51.238;9.562;2024-01-11T01:52:54;-4.60;73.70
3416;DHT22;1721;51.238;9.562;2024-01-11T01:55:21;-4.70;73.20
3416;DHT22;1721;51.238;9.562;2024-01-11T01:57:48;-4.70;73.10
3416;DHT22;1721;51.238;9.562;2024-01-11T02:00:15;-4.70;73.10
3416;DHT22;1721;51.238;9.562;2024-01-11T02:02:43;-4.70;73.10
3416;DHT22;1721;51.238;9.562;2024-01-11T02:05:10;-4.80;72.90
3416;DHT22;1721;51.238;9.562;2024-01-11T02:07:36;-4.90;73.00
3416;DHT22;1721;51.238;9.562;2024-01-11T02:10:02;-4.80;73.30
3416;DHT22;1721;51.238;9.562;2024-01-11T02:12:29;-4.90;72.90
3416;DHT22;1721;51.238;9.562;2024-01-11T02:14:54;-4.90;72.90
3416;DHT22;1721;51.238;9.562;2024-01-11T02:17:20;-4.90;73.20
3416;DHT22;1721;51.238;9.562;2024-01-11T02:19:46;-4.90;73.40
3416;DHT22;1721;51.238;9.562;2024-01-11T02:22:20;-4.90;73.50
3416;DHT22;1721;51.238;9.562;2024-01-11T02:24:47;-4.90;73.20
3416;DHT22;1721;51.238;9.562;2024-01-11T02:27:12;-4.90;72.90
3416;DHT22;1721;51.238;9.562;2024-01-11T02:29:38;-4.90;72.90
3416;DHT22;1721;51.238;9.562;2024-01-11T02:32:03;-5.00;73.10
3416;DHT22;1721;51.238;9.562;2024-01-11T02:34:31;-5.00;73.10
3416;DHT22;1721;51.238;9.562;2024-01-11T02:36:57;-5.00;73.10
3416;DHT22;1721;51.238;9.562;2024-01-11T02:39:23;-5.00;73.20
3416;DHT22;1721;51.238;9.562;2024-01-11T02:41:50;-5.00;73.60
3416;DHT22;1721;51.238;9.562;2024-01-11T02:44:16;-5.00;73.50
3416;DHT22;1721;51.238;9.562;2024-01-11T02:46:42;-5.10;73.40
3416;DHT22;1721;51.238;9.562;2024-01-11T02:49:08;-5.10;73.60
3416;DHT22;1721;51.238;9.562;2024-01-11T02:51:33;-5.10;73.30
3416;DHT22;1721;51.238;9.562;2024-01-11T02:53:59;-5.10;73.70
3416;DHT22;1721;51.238;9.562;2024-01-11T02:56:25;-5.20;73.60
3416;DHT22;1721;51.238;9.562;2024-01-11T02:58:50;-5.20;73.30
3416;DHT22;1721;51.238;9.562;2024-01-11T03:01:16;-5.10;73.70
3416;DHT22;1721;51.238;9.562;2024-01-11T03:03:41;-5.10;73.50
3416;DHT22;1721;51.238;9.562;2024-01-11T03:06:07;-5.10;73.70
3416;DHT22;1721;51.238;9.562;2024-01-11T03:08:33;-5.10;73.90
3416;DHT22;1721;51.238;9.562;2024-01-11T03:10:58;-5.30;72.90
3416;DHT22;1721;51.238;9.562;2024-01-11T03:13:24;-5.40;73.90
3416;DHT22;1721;51.238;9.562;2024-01-11T03:15:50;-5.40;74.00
3416;DHT22;1721;51.238;9.562;2024-01-11T03:18:15;-5.40;73.90
3416;DHT22;1721;51.238;9.562;2024-01-11T03:20:41;-5.40;73.50
3416;DHT22;1721;51.238;9.562;2024-01-11T03:23:06;-5.30;73.60
3416;DHT22;1721;51.238;9.562;2024-01-11T03:25:32;-5.30;73.50
3416;DHT22;1721;51.238;9.562;2024-01-11T03:27:58;-5.20;73.10
3416;DHT22;1721;51.238;9.562;2024-01-11T03:30:24;-5.20;73.00
3416;DHT22;1721;51.238;9.562;2024-01-11T03:32:49;-5.20;72.90
3416;DHT22;1721;51.238;9.562;2024-01-11T03:35:15;-5.20;72.70
3416;DHT22;1721;51.238;9.562;2024-01-11T03:37:41;-5.20;72.80
3416;DHT22;1721;51.238;9.562;2024-01-11T03:40:06;-5.30;72.90
3416;DHT22;1721;51.238;9.562;2024-01-11T03:42:32;-5.50;72.90
3416;DHT22;1721;51.238;9.562;2024-01-11T03:44:58;-5.50;74.10
3416;DHT22;1721;51.238;9.562;2024-01-11T03:47:23;-5.60;74.00
3416;DHT22;1721;51.238;9.562;2024-01-11T03:49:49;-5.70;74.20
3416;DHT22;1721;51.238;9.562;2024-01-11T03:52:14;-5.50;74.60
3416;DHT22;1721;51.238;9.562;2024-01-11T03:54:40;-5.50;73.90
3416;DHT22;1721;51.238;9.562;2024-01-11T03:57:05;-5.50;73.50
3416;DHT22;1721;51.238;9.562;2024-01-11T03:59:32;-5.50;73.40
3416;DHT22;1721;51.238;9.562;2024-01-11T04:01:57;-5.50;73.10
3416;DHT22;1721;51.238;9.562;2024-01-11T04:04:23;-5.50;73.00
3416;DHT22;1721;51.238;9.562;2024-01-11T04:06:49;-5.40;72.90
3416;DHT22;1721;51.238;9.562;2024-01-11T04:09:15;-5.50;72.80
3416;DHT22;1721;51.238;9.562;2024-01-11T04:11:40;-5.50;73.00
3416;DHT22;1721;51.238;9.562;2024-01-11T04:14:06;-5.50;73.20
3416;DHT22;1721;51.238;9.562;2024-01-11T04:16:32;-5.50;73.20
3416;DHT22;1721;51.238;9.562;2024-01-11T04:18:57;-5.50;73.10
3416;DHT22;1721;51.238;9.562;2024-01-11T04:21:27;-5.60;72.90
3416;DHT22;1721;51.238;9.562;2024-01-11T04:23:56;-5.60;72.90
3416;DHT22;1721;51.238;9.562;2024-01-11T04:26:21;-5.60;73.10
3416;DHT22;1721;51.238;9.562;2024-01-11T04:28:47;-5.60;72.90
3416;DHT22;1721;51.238;9.562;2024-01-11T04:31:16;-5.50;73.50
3416;DHT22;1721;51.238;9.562;2024-01-11T04:33:46;-5.60;72.40
3416;DHT22;1721;51.238;9.562;2024-01-11T04:36:12;-5.70;73.00
3416;DHT22;1721;51.238;9.562;2024-01-11T04:38:38;-5.60;73.40
3416;DHT22;1721;51.238;9.562;2024-01-11T04:41:10;-5.60;72.90
3416;DHT22;1721;51.238;9.562;2024-01-11T04:43:43;-5.50;72.70
3416;DHT22;1721;51.238;9.562;2024-01-11T04:46:19;-5.50;72.40
3416;DHT22;1721;51.238;9.562;2024-01-11T04:48:45;-5.60;72.20
3416;DHT22;1721;51.238;9.562;2024-01-11T04:51:12;-5.50;72.40
3416;DHT22;1721;51.238;9.562;2024-01-11T04:53:42;-5.50;72.50
3416;DHT22;1721;51.238;9.562;2024-01-11T04:56:09;-5.60;72.50
3416;DHT22;1721;51.238;9.562;2024-01-11T04:58:35;-5.50;72.80
3416;DHT22;1721;51.238;9.562;2024-01-11T05:01:02;-5.50;72.90
3416;DHT22;1721;51.238;9.562;2024-01-11T05:03:28;-5.50;72.40
3416;DHT22;1721;51.238;9.562;2024-01-11T05:05:54;-5.60;72.50
3416;DHT22;1721;51.238;9.562;2024-01-11T05:08:19;-5.70;72.90
3416;DHT22;1721;51.238;9.562;2024-01-11T05:10:45;-5.70;73.10
3416;DHT22;1721;51.238;9.562;2024-01-11T05:13:10;-5.70;72.70
3416;DHT22;1721;51.238;9.562;2024-01-11T05:15:36;-5.70;73.00
3416;DHT22;1721;51.238;9.562;2024-01-11T05:18:01;-5.70;72.80
3416;DHT22;1721;51.238;9.562;2024-01-11T05:20:27;-5.60;72.80
3416;DHT22;1721;51.238;9.562;2024-01-11T05:22:52;-5.70;73.50
3416;DHT22;1721;51.238;9.562;2024-01-11T05:25:18;-5.70;74.10
3416;DHT22;1721;51.238;9.562;2024-01-11T05:27:44;-5.70;74.30
3416;DHT22;1721;51.238;9.562;2024-01-11T05:30:09;-5.60;74.10
3416;DHT22;1721;51.238;9.562;2024-01-11T05:32:35;-5.50;73.90
3416;DHT22;1721;51.238;9.562;2024-01-11T05:35:01;-5.50;73.60
3416;DHT22;1721;51.238;9.562;2024-01-11T05:37:26;-5.50;73.30
3416;DHT22;1721;51.238;9.562;2024-01-11T05:39:51;-5.50;73.50
3416;DHT22;1721;51.238;9.562;2024-01-11T05:42:17;-5.50;73.20
3416;DHT22;1721;51.238;9.562;2024-01-11T05:44:43;-5.40;73.10
3416;DHT22;1721;51.238;9.562;2024-01-11T05:47:09;-5.40;72.80
3416;DHT22;1721;51.238;9.562;2024-01-11T05:49:35;-5.40;72.60
3416;DHT22;1721;51.238;9.562;2024-01-11T05:52:00;-5.40;72.80
3416;DHT22;1721;51.238;9.562;2024-01-11T05:54:26;-5.40;72.70
3416;DHT22;1721;51.238;9.562;2024-01-11T05:56:53;-5.50;72.80
3416;DHT22;1721;51.238;9.562;2024-01-11T05:59:21;-5.40;73.30
3416;DHT22;1721;51.238;9.562;2024-01-11T06:01:47;-5.40;72.60
3416;DHT22;1721;51.238;9.562;2024-01-11T06:04:13;-5.50;72.30
3416;DHT22;1721;51.238;9.562;2024-01-11T06:06:39;-5.60;73.10
3416;DHT22;1721;51.238;9.562;2024-01-11T06:09:05;-5.50;73.30
3416;DHT22;1721;51.238;9.562;2024-01-11T06:11:31;-5.40;73.30
3416;DHT22;1721;51.238;9.562;2024-01-11T06:13:56;-5.30;73.30
3416;DHT22;1721;51.238;9.562;2024-01-11T06:16:22;-5.30;73.40
3416;DHT22;1721;51.238;9.562;2024-01-11T06:18:48;-5.30;73.10
3416;DHT22;1721;51.238;9.562;2024-01-11T06:21:13;-5.30;72.90
3416;DHT22;1721;51.238;9.562;2024-01-11T06:23:40;-5.30;73.10
3416;DHT22;1721;51.238;9.562;2024-01-11T06:26:07;-5.30;73.60
3416;DHT22;1721;51.238;9.562;2024-01-11T06:28:32;-5.30;73.50
3416;DHT22;1721;51.238;9.562;2024-01-11T06:30:58;-5.20;73.50
3416;DHT22;1721;51.238;9.562;2024-01-11T06:33:23;-5.40;73.30
3416;DHT22;1721;51.238;9.562;2024-01-11T06:35:49;-5.40;73.30
3416;DHT22;1721;51.238;9.562;2024-01-11T06:38:14;-5.50;74.20
3416;DHT22;1721;51.238;9.562;2024-01-11T06:40:40;-5.40;74.60
3416;DHT22;1721;51.238;9.562;2024-01-11T06:43:05;-5.40;74.30
3416;DHT22;1721;51.238;9.562;2024-01-11T06:45:31;-5.30;74.50
3416;DHT22;1721;51.238;9.562;2024-01-11T06:47:56;-5.40;73.50
3416;DHT22;1721;51.238;9.562;2024-01-11T06:50:22;-5.40;74.20
3416;DHT22;1721;51.238;9.562;2024-01-11T06:52:48;-5.20;74.20
3416;DHT22;1721;51.238;9.562;2024-01-11T06:55:13;-5.20;73.90
3416;DHT22;1721;51.238;9.562;2024-01-11T06:57:39;-5.10;73.70
3416;DHT22;1721;51.238;9.562;2024-01-11T07:00:06;-5.10;73.90
3416;DHT22;1721;51.238;9.562;2024-01-11T07:02:32;-5.00;74.00
3416;DHT22;1721;51.238;9.562;2024-01-11T07:04:58;-5.00;73.50
3416;DHT22;1721;51.238;9.562;2024-01-11T07:07:23;-5.00;73.40
3416;DHT22;1721;51.238;9.562;2024-01-11T07:09:49;-5.00;72.80
3416;DHT22;1721;51.238;9.562;2024-01-11T07:12:14;-4.90;72.90
3416;DHT22;1721;51.238;9.562;2024-01-11T07:14:40;-5.00;73.00
3416;DHT22;1721;51.238;9.562;2024-01-11T07:17:06;-5.00;72.80
3416;DHT22;1721;51.238;9.562;2024-01-11T07:19:31;-4.90;72.60
3416;DHT22;1721;51.238;9.562;2024-01-11T07:21:57;-4.80;72.50
3416;DHT22;1721;51.238;9.562;2024-01-11T07:24:22;-4.90;72.20
3416;DHT22;1721;51.238;9.562;2024-01-11T07:26:48;-4.90;72.50
3416;DHT22;1721;51.238;9.562;2024-01-11T07:29:14;-4.80;72.60
3416;DHT22;1721;51.238;9.562;2024-01-11T07:31:39;-4.80;72.50
3416;DHT22;1721;51.238;9.562;2024-01-11T07:34:05;-4.80;72.80
3416;DHT22;1721;51.238;9.562;2024-01-11T07:36:30;-4.80;73.20
3416;DHT22;1721;51.238;9.562;2024-01-11T07:38:56;-4.80;73.50
3416;DHT22;1721;51.238;9.562;2024-01-11T07:41:22;-4.70;73.30
3416;DHT22;1721;51.238;9.562;2024-01-11T07:43:47;-4.70;73.10
3416;DHT22;1721;51.238;9.562;2024-01-11T07:46:13;-4.70;73.20
3416;DHT22;1721;51.238;9.562;2024-01-11T07:48:39;-4.70;73.50
3416;DHT22;1721;51.238;9.562;2024-01-11T07:51:04;-4.60;73.70
3416;DHT22;1721;51.238;9.562;2024-01-11T07:53:30;-4.50;73.60
3416;DHT22;1721;51.238;9.562;2024-01-11T07:55:57;-4.50;73.60
3416;DHT22;1721;51.238;9.562;2024-01-11T07:58:23;-4.40;73.80
3416;DHT22;1721;51.238;9.562;2024-01-11T08:00:48;-4.40;73.90
3416;DHT22;1721;51.238;9.562;2024-01-11T08:03:14;-4.40;73.90
3416;DHT22;1721;51.238;9.562;2024-01-11T08:05:40;-4.30;73.50
3416;DHT22;1721;51.238;9.562;2024-01-11T08:08:06;-4.30;73.50
3416;DHT22;1721;51.238;9.562;2024-01-11T08:10:32;-4.20;74.20
3416;DHT22;1721;51.238;9.562;2024-01-11T08:12:57;-4.10;74.20
3416;DHT22;1721;51.238;9.562;2024-01-11T08:15:25;-4.10;74.40
3416;DHT22;1721;51.238;9.562;2024-01-11T08:17:50;-4.10;74.60
3416;DHT22;1721;51.238;9.562;2024-01-11T08:20:16;-4.00;74.60
3416;DHT22;1721;51.238;9.562;2024-01-11T08:22:44;-3.90;74.70
3416;DHT22;1721;51.238;9.562;2024-01-11T08:25:11;-3.80;74.90
3416;DHT22;1721;51.238;9.562;2024-01-11T08:27:38;-3.80;74.90
3416;DHT22;1721;51.238;9.562;2024-01-11T08:30:04;-3.70;74.90
3416;DHT22;1721;51.238;9.562;2024-01-11T08:32:30;-3.70;75.30
3416;DHT22;1721;51.238;9.562;2024-01-11T08:34:59;-3.70;74.90
3416;DHT22;1721;51.238;9.562;2024-01-11T08:37:24;-3.70;75.40
3416;DHT22;1721;51.238;9.562;2024-01-11T08:39:50;-3.60;75.10
3416;DHT22;1721;51.238;9.562;2024-01-11T08:42:15;-3.50;75.40
3416;DHT22;1721;51.238;9.562;2024-01-11T08:44:42;-3.40;75.30
3416;DHT22;1721;51.238;9.562;2024-01-11T08:47:08;-3.20;74.90
3416;DHT22;1721;51.238;9.562;2024-01-11T08:49:36;-3.50;75.30
3416;DHT22;1721;51.238;9.562;2024-01-11T08:52:03;-3.40;76.00
3416;DHT22;1721;51.238;9.562;2024-01-11T08:54:29;-3.40;76.10
3416;DHT22;1721;51.238;9.562;2024-01-11T08:56:55;-3.30;76.30
3416;DHT22;1721;51.238;9.562;2024-01-11T08:59:20;-3.00;76.60
3416;DHT22;1721;51.238;9.562;2024-01-11T09:01:50;-3.00;76.20
3416;DHT22;1721;51.238;9.562;2024-01-11T09:04:16;-2.90;76.00
3416;DHT22;1721;51.238;9.562;2024-01-11T09:06:43;-2.90;75.20
3416;DHT22;1721;51.238;9.562;2024-01-11T09:09:10;-3.00;76.20
3416;DHT22;1721;51.238;9.562;2024-01-11T09:11:36;-3.00;76.20
3416;DHT22;1721;51.238;9.562;2024-01-11T09:14:02;-2.90;77.30
3416;DHT22;1721;51.238;9.562;2024-01-11T09:16:30;-2.60;77.00
3416;DHT22;1721;51.238;9.562;2024-01-11T09:18:56;-2.60;76.90
3416;DHT22;1721;51.238;9.562;2024-01-11T09:21:22;-2.50;76.40
3416;DHT22;1721;51.238;9.562;2024-01-11T09:23:47;-2.30;76.80
3416;DHT22;1721;51.238;9.562;2024-01-11T09:26:13;-2.30;76.40
3416;DHT22;1721;51.238;9.562;2024-01-11T09:28:39;-2.30;76.30
3416;DHT22;1721;51.238;9.562;2024-01-11T09:31:04;-2.20;77.30
3416;DHT22;1721;51.238;9.562;2024-01-11T09:33:30;-2.00;76.90
3416;DHT22;1721;51.238;9.562;2024-01-11T09:35:55;-1.90;76.10
3416;DHT22;1721;51.238;9.562;2024-01-11T09:38:22;-1.80;75.80
3416;DHT22;1721;51.238;9.562;2024-01-11T09:40:59;-1.90;75.40
3416;DHT22;1721;51.238;9.562;2024-01-11T09:43:31;-1.80;75.80
3416;DHT22;1721;51.238;9.562;2024-01-11T09:45:58;-1.60;75.70
3416;DHT22;1721;51.238;9.562;2024-01-11T09:48:25;-1.50;74.80
3416;DHT22;1721;51.238;9.562;2024-01-11T09:50:52;-1.30;75.00
3416;DHT22;1721;51.238;9.562;2024-01-11T09:53:19;-1.20;74.90
3416;DHT22;1721;51.238;9.562;2024-01-11T09:55:48;-1.10;74.40
3416;DHT22;1721;51.238;9.562;2024-01-11T09:58:14;-1.10;73.50
3416;DHT22;1721;51.238;9.562;2024-01-11T10:00:41;-1.30;72.60
3416;DHT22;1721;51.238;9.562;2024-01-11T10:03:06;-1.40;73.00
3416;DHT22;1721;51.238;9.562;2024-01-11T10:05:34;-1.20;73.80
3416;DHT22;1721;51.238;9.562;2024-01-11T10:08:00;-1.10;73.40
3416;DHT22;1721;51.238;9.562;2024-01-11T10:10:26;-1.00;73.10
3416;DHT22;1721;51.238;9.562;2024-01-11T10:12:52;-1.10;71.10
3416;DHT22;1721;51.238;9.562;2024-01-11T10:15:18;-1.20;71.30
3416;DHT22;1721;51.238;9.562;2024-01-11T10:17:44;-1.30;72.20
3416;DHT22;1721;51.238;9.562;2024-01-11T10:20:13;-1.20;71.60
3416;DHT22;1721;51.238;9.562;2024-01-11T10:22:40;-1.20;71.90
3416;DHT22;1721;51.238;9.562;2024-01-11T10:25:14;-1.10;71.10
3416;DHT22;1721;51.238;9.562;2024-01-11T10:27:42;-1.00;71.30
3416;DHT22;1721;51.238;9.562;2024-01-11T10:30:08;-0.90;71.20
3416;DHT22;1721;51.238;9.562;2024-01-11T10:32:34;-0.80;71.00
3416;DHT22;1721;51.238;9.562;2024-01-11T10:35:00;-0.70;70.40
3416;DHT22;1721;51.238;9.562;2024-01-11T10:37:28;-0.90;70.40
3416;DHT22;1721;51.238;9.562;2024-01-11T10:39:56;-0.70;70.80
3416;DHT22;1721;51.238;9.562;2024-01-11T10:42:24;-0.50;70.30
3416;DHT22;1721;51.238;9.562;2024-01-11T10:44:55;-0.50;70.10
3416;DHT22;1721;51.238;9.562;2024-01-11T10:47:24;-0.60;69.40
3416;DHT22;1721;51.238;9.562;2024-01-11T10:49:54;-0.60;69.70
3416;DHT22;1721;51.238;9.562;2024-01-11T10:52:24;-0.50;70.10
3416;DHT22;1721;51.238;9.562;2024-01-11T10:54:53;-0.40;69.60
3416;DHT22;1721;51.238;9.562;2024-01-11T10:57:20;-0.40;70.30
3416;DHT22;1721;51.238;9.562;2024-01-11T10:59:46;-0.30;70.50
3416;DHT22;1721;51.238;9.562;2024-01-11T11:02:14;-0.30;70.20
3416;DHT22;1721;51.238;9.562;2024-01-11T11:04:42;-0.20;70.30
3416;DHT22;1721;51.238;9.562;2024-01-11T11:07:08;-0.20;70.10
3416;DHT22;1721;51.238;9.562;2024-01-11T11:09:35;-0.30;69.30
3416;DHT22;1721;51.238;9.562;2024-01-11T11:12:01;-0.20;70.10
3416;DHT22;1721;51.238;9.562;2024-01-11T11:14:28;-0.10;70.20
3416;DHT22;1721;51.238;9.562;2024-01-11T11:16:54;0.10;70.20
3416;DHT22;1721;51.238;9.562;2024-01-11T11:19:20;0.20;70.30
3416;DHT22;1721;51.238;9.562;2024-01-11T11:21:47;0.30;70.70
3416;DHT22;1721;51.238;9.562;2024-01-11T11:24:14;0.50;71.30
3416;DHT22;1721;51.238;9.562;2024-01-11T11:26:42;0.40;70.70
3416;DHT22;1721;51.238;9.562;2024-01-11T11:29:08;0.40;70.30
3416;DHT22;1721;51.238;9.562;2024-01-11T11:31:52;0.20;70.60
3416;DHT22;1721;51.238;9.562;2024-01-11T11:34:40;0.40;70.90
3416;DHT22;1721;51.238;9.562;2024-01-11T11:37:06;0.50;69.80
3416;DHT22;1721;51.238;9.562;2024-01-11T11:39:32;0.50;69.20
3416;DHT22;1721;51.238;9.562;2024-01-11T11:41:58;0.60;70.40
3416;DHT22;1721;51.238;9.562;2024-01-11T11:44:25;0.60;68.80
3416;DHT22;1721;51.238;9.562;2024-01-11T11:46:51;0.70;68.90
3416;DHT22;1721;51.238;9.562;2024-01-11T11:49:17;0.80;68.30
3416;DHT22;1721;51.238;9.562;2024-01-11T11:51:43;0.90;69.10
3416;DHT22;1721;51.238;9.562;2024-01-11T11:54:09;1.00;68.10
3416;DHT22;1721;51.238;9.562;2024-01-11T11:56:35;1.00;66.00
3416;DHT22;1721;51.238;9.562;2024-01-11T11:59:02;1.10;66.10
3416;DHT22;1721;51.238;9.562;2024-01-11T12:01:28;1.00;65.60
3416;DHT22;1721;51.238;9.562;2024-01-11T12:03:54;1.10;65.30
3416;DHT22;1721;51.238;9.562;2024-01-11T12:06:21;1.00;64.20
3416;DHT22;1721;51.238;9.562;2024-01-11T12:08:52;1.10;64.20
3416;DHT22;1721;51.238;9.562;2024-01-11T12:11:19;1.00;64.80
3416;DHT22;1721;51.238;9.562;2024-01-11T12:13:47;0.90;65.00
3416;DHT22;1721;51.238;9.562;2024-01-11T12:16:13;0.90;65.40
3416;DHT22;1721;51.238;9.562;2024-01-11T12:18:39;1.00;65.80
3416;DHT22;1721;51.238;9.562;2024-01-11T12:21:05;1.10;65.90
3416;DHT22;1721;51.238;9.562;2024-01-11T12:23:31;1.10;66.60
3416;DHT22;1721;51.238;9.562;2024-01-11T12:26:01;1.20;65.80
3416;DHT22;1721;51.238;9.562;2024-01-11T12:28:27;1.20;65.10
3416;DHT22;1721;51.238;9.562;2024-01-11T12:30:53;1.30;65.10
3416;DHT22;1721;51.238;9.562;2024-01-11T12:33:19;1.30;65.90
3416;DHT22;1721;51.238;9.562;2024-01-11T12:35:46;1.30;66.50
3416;DHT22;1721;51.238;9.562;2024-01-11T12:38:12;1.40;66.60
3416;DHT22;1721;51.238;9.562;2024-01-11T12:40:38;1.30;65.60
3416;DHT22;1721;51.238;9.562;2024-01-11T12:43:07;1.20;66.40
3416;DHT22;1721;51.238;9.562;2024-01-11T12:45:34;1.40;66.80
3416;DHT22;1721;51.238;9.562;2024-01-11T12:48:00;1.40;66.90
3416;DHT22;1721;51.238;9.562;2024-01-11T12:50:30;1.60;66.30
3416;DHT22;1721;51.238;9.562;2024-01-11T12:55:32;1.70;66.00
3416;DHT22;1721;51.238;9.562;2024-01-11T12:58:08;1.90;66.30
3416;DHT22;1721;51.238;9.562;2024-01-11T13:00:37;1.90;65.70
3416;DHT22;1721;51.238;9.562;2024-01-11T13:03:06;2.00;65.10
3416;DHT22;1721;51.238;9.562;2024-01-11T13:05:32;2.10;64.40
3416;DHT22;1721;51.238;9.562;2024-01-11T13:08:02;2.00;64.10
3416;DHT22;1721;51.238;9.562;2024-01-11T13:10:31;2.00;64.40
3416;DHT22;1721;51.238;9.562;2024-01-11T13:12:58;2.10;64.10
3416;DHT22;1721;51.238;9.562;2024-01-11T13:15:25;2.10;64.10
3416;DHT22;1721;51.238;9.562;2024-01-11T13:17:50;2.20;64.30
3416;DHT22;1721;51.238;9.562;2024-01-11T13:20:16;2.10;63.00
3416;DHT22;1721;51.238;9.562;2024-01-11T13:22:41;1.90;63.00
3416;DHT22;1721;51.238;9.562;2024-01-11T13:25:07;2.00;63.50
3416;DHT22;1721;51.238;9.562;2024-01-11T13:27:33;2.10;63.40
3416;DHT22;1721;51.238;9.562;2024-01-11T13:29:58;2.10;63.60
3416;DHT22;1721;51.238;9.562;2024-01-11T13:32:24;2.10;63.70
3416;DHT22;1721;51.238;9.562;2024-01-11T13:34:49;2.20;63.70
3416;DHT22;1721;51.238;9.562;2024-01-11T13:37:19;2.20;63.20
3416;DHT22;1721;51.238;9.562;2024-01-11T13:39:45;2.30;63.20
3416;DHT22;1721;51.238;9.562;2024-01-11T13:42:10;2.20;62.20
3416;DHT22;1721;51.238;9.562;2024-01-11T13:44:38;2.20;62.30
3416;DHT22;1721;51.238;9.562;2024-01-11T13:47:03;2.40;62.80
3416;DHT22;1721;51.238;9.562;2024-01-11T13:49:29;2.50;62.80
3416;DHT22;1721;51.238;9.562;2024-01-11T13:51:54;2.40;62.80
3416;DHT22;1721;51.238;9.562;2024-01-11T13:54:20;2.50;62.60
3416;DHT22;1721;51.238;9.562;2024-01-11T13:56:47;2.50;61.90
3416;DHT22;1721;51.238;9.562;2024-01-11T13:59:13;2.40;61.10
3416;DHT22;1721;51.238;9.562;2024-01-11T14:01:39;2.60;61.80
3416;DHT22;1721;51.238;9.562;2024-01-11T14:04:04;2.60;61.20
3416;DHT22;1721;51.238;9.562;2024-01-11T14:06:30;2.60;61.60
3416;DHT22;1721;51.238;9.562;2024-01-11T14:08:56;2.60;61.70
3416;DHT22;1721;51.238;9.562;2024-01-11T14:11:21;2.80;61.70
3416;DHT22;1721;51.238;9.562;2024-01-11T14:13:47;2.80;60.20
3416;DHT22;1721;51.238;9.562;2024-01-11T14:16:13;2.80;60.30
3416;DHT22;1721;51.238;9.562;2024-01-11T14:18:41;3.00;60.70
3416;DHT22;1721;51.238;9.562;2024-01-11T14:21:06;3.00;59.30
3416;DHT22;1721;51.238;9.562;2024-01-11T14:23:32;2.80;59.00
3416;DHT22;1721;51.238;9.562;2024-01-11T14:25:57;2.80;59.40
3416;DHT22;1721;51.238;9.562;2024-01-11T14:28:23;2.80;59.50
3416;DHT22;1721;51.238;9.562;2024-01-11T14:30:49;2.80;60.10
3416;DHT22;1721;51.238;9.562;2024-01-11T14:33:15;2.80;59.40
3416;DHT22;1721;51.238;9.562;2024-01-11T14:35:41;2.70;59.90
3416;DHT22;1721;51.238;9.562;2024-01-11T14:38:06;2.70;60.60
3416;DHT22;1721;51.238;9.562;2024-01-11T14:40:32;2.60;60.40
3416;DHT22;1721;51.238;9.562;2024-01-11T14:42:57;2.60;60.70
3416;DHT22;1721;51.238;9.562;2024-01-11T14:45:23;2.50;61.30
3416;DHT22;1721;51.238;9.562;2024-01-11T14:47:48;2.60;61.50
3416;DHT22;1721;51.238;9.562;2024-01-11T14:50:14;2.50;61.70
3416;DHT22;1721;51.238;9.562;2024-01-11T14:52:39;2.50;62.40
3416;DHT22;1721;51.238;9.562;2024-01-11T14:55:06;2.30;62.60
3416;DHT22;1721;51.238;9.562;2024-01-11T14:57:32;2.20;63.70
3416;DHT22;1721;51.238;9.562;2024-01-11T14:59:57;2.00;64.10
3416;DHT22;1721;51.238;9.562;2024-01-11T15:02:23;1.70;65.40
3416;DHT22;1721;51.238;9.562;2024-01-11T15:04:48;1.70;66.10
3416;DHT22;1721;51.238;9.562;2024-01-11T15:07:14;1.80;66.40
3416;DHT22;1721;51.238;9.562;2024-01-11T15:09:40;1.70;66.70
3416;DHT22;1721;51.238;9.562;2024-01-11T15:12:05;1.60;67.30
3416;DHT22;1721;51.238;9.562;2024-01-11T15:14:31;1.60;68.30
3416;DHT22;1721;51.238;9.562;2024-01-11T15:16:56;1.40;69.60
3416;DHT22;1721;51.238;9.562;2024-01-11T15:19:22;1.40;70.90
3416;DHT22;1721;51.238;9.562;2024-01-11T15:21:48;1.30;71.80
3416;DHT22;1721;51.238;9.562;2024-01-11T15:24:14;1.10;73.10
3416;DHT22;1721;51.238;9.562;2024-01-11T15:26:39;1.10;74.10
3416;DHT22;1721;51.238;9.562;2024-01-11T15:29:05;1.00;74.60
3416;DHT22;1721;51.238;9.562;2024-01-11T15:31:31;0.90;76.50
3416;DHT22;1721;51.238;9.562;2024-01-11T15:33:56;0.80;79.00
3416;DHT22;1721;51.238;9.562;2024-01-11T15:36:23;0.70;80.10
3416;DHT22;1721;51.238;9.562;2024-01-11T15:38:49;0.60;81.80
3416;DHT22;1721;51.238;9.562;2024-01-11T15:41:15;0.40;83.10
3416;DHT22;1721;51.238;9.562;2024-01-11T15:43:40;0.40;83.90
3416;DHT22;1721;51.238;9.562;2024-01-11T15:46:07;0.30;84.40
3416;DHT22;1721;51.238;9.562;2024-01-11T15:48:33;0.10;85.10
3416;DHT22;1721;51.238;9.562;2024-01-11T15:50:59;0.20;85.60
3416;DHT22;1721;51.238;9.562;2024-01-11T15:53:24;0.20;85.50
3416;DHT22;1721;51.238;9.562;2024-01-11T15:55:50;0.30;86.00
3416;DHT22;1721;51.238;9.562;2024-01-11T15:58:16;0.30;85.30
3416;DHT22;1721;51.238;9.562;2024-01-11T16:00:42;0.20;86.50
3416;DHT22;1721;51.238;9.562;2024-01-11T16:03:10;0.20;86.60